Time;durP1;ratioP1;P1;durP2;ratioP2;P2;SDS_P1;SDS_P2;PMS_P1;PMS_P2;Temp;Humidity;BMP_temperature;BMP_pressure;BME280_temperature;BME280_humidity;BME280_pressure;Samples;Min_cycle;Max_cycle;Signal;HPM_P1;HPM_P2
2022/08/27 00:02:02;;;;;;;15.37;13.77;;;;;;;21.60;99.53;97928.00;4171231;28;20640;-85
2022/08/27 00:04:06;;;;;;;17.00;14.10;;;;;;;21.58;100.00;97927.38;4157995;28;20716;-85
2022/08/27 00:06:12;;;;;;;16.93;14.20;;;;;;;21.56;99.64;97924.06;4177298;28;20667;-85
2022/08/27 00:08:15;;;;;;;22.83;14.80;;;;;;;21.56;100.00;97926.72;4174461;28;20649;-85
2022/08/27 00:10:21;;;;;;;19.50;15.60;;;;;;;21.56;100.00;97921.41;4167892;28;20631;-85
2022/08/27 00:12:24;;;;;;;22.77;17.33;;;;;;;21.58;100.00;97913.28;4177960;28;20626;-85
2022/08/27 00:14:28;;;;;;;19.40;17.30;;;;;;;21.59;100.00;97917.56;4174155;28;20702;-85
2022/08/27 00:16:31;;;;;;;18.40;16.10;;;;;;;21.60;99.84;97914.75;4171351;28;20640;-86
2022/08/27 00:18:35;;;;;;;19.57;17.03;;;;;;;21.59;100.00;97914.91;4171525;28;20662;-86
2022/08/27 00:20:38;;;;;;;19.43;16.20;;;;;;;21.58;100.00;97911.44;4174571;28;20979;-85
2022/08/27 00:22:43;;;;;;;20.80;16.77;;;;;;;21.57;100.00;97908.97;4176263;28;20669;-86
2022/08/27 00:24:46;;;;;;;18.77;16.20;;;;;;;21.55;100.00;97906.47;4178339;28;20637;-85
2022/08/27 00:26:52;;;;;;;20.40;18.20;;;;;;;21.56;100.00;97915.25;4170731;28;20615;-85
2022/08/27 00:28:55;;;;;;;18.90;16.23;;;;;;;21.56;100.00;97912.59;4178485;28;20618;-85
2022/08/27 00:30:58;;;;;;;21.73;19.03;;;;;;;21.55;100.00;97906.47;4175137;28;20700;-86
2022/08/27 00:33:04;;;;;;;23.30;19.77;;;;;;;21.54;99.74;97910.13;4161781;28;20677;-85
2022/08/27 00:35:08;;;;;;;25.20;19.83;;;;;;;21.55;100.00;97906.47;4178110;28;20630;-85
2022/08/27 00:37:11;;;;;;;22.13;19.00;;;;;;;21.54;100.00;97910.13;4172707;28;21062;-85
2022/08/27 00:39:16;;;;;;;20.20;16.70;;;;;;;21.53;100.00;97911.16;4173758;28;20630;-86
2022/08/27 00:41:20;;;;;;;17.03;15.17;;;;;;;21.52;100.00;97916.63;4174552;28;20638;-86
2022/08/27 00:43:23;;;;;;;18.90;15.43;;;;;;;21.51;100.00;97922.94;4174562;28;20623;-84
2022/08/27 00:45:26;;;;;;;20.90;16.93;;;;;;;21.50;100.00;97919.47;4175118;28;20621;-85
2022/08/27 00:47:32;;;;;;;23.47;17.23;;;;;;;21.50;100.00;97919.47;4182040;28;20666;-85
2022/08/27 00:49:40;;;;;;;17.90;16.00;;;;;;;21.51;100.00;97915.78;4201662;28;20735;-85
2022/08/27 00:51:43;;;;;;;19.93;17.77;;;;;;;21.52;100.00;97922.78;4173170;28;20975;-85
2022/08/27 00:53:52;;;;;;;22.60;17.03;;;;;;;21.53;100.00;97919.13;4161723;28;20622;-85
2022/08/27 00:55:58;;;;;;;24.80;18.80;;;;;;;21.54;100.00;97923.41;4161465;28;20634;-86
2022/08/27 00:58:06;;;;;;;21.43;18.20;;;;;;;21.57;100.00;97925.72;4170644;28;20651;-85
2022/08/27 01:00:13;;;;;;;24.10;20.60;;;;;;;21.58;100.00;97915.94;4175549;28;20703;-85
2022/08/27 01:02:19;;;;;;;26.83;20.93;;;;;;;21.59;100.00;97922.88;4169807;28;20725;-86
2022/08/27 01:04:22;;;;;;;25.10;21.80;;;;;;;21.60;100.00;97920.03;4177716;28;20615;-85
2022/08/27 01:06:36;;;;;;;25.13;19.70;;;;;;;21.60;100.00;97920.03;4171116;28;20633;-85
2022/08/27 01:08:42;;;;;;;24.70;19.53;;;;;;;21.61;100.00;97918.25;4163999;28;20654;-85
2022/08/27 01:10:46;;;;;;;23.43;20.47;;;;;;;21.62;100.00;97919.88;4176677;28;21023;-85
2022/08/27 01:12:53;;;;;;;24.83;20.57;;;;;;;21.64;100.00;97915.22;4181066;28;21057;-86
2022/08/27 01:14:56;;;;;;;25.33;19.27;;;;;;;21.65;100.00;97915.06;4173925;28;20664;-85
2022/08/27 01:17:00;;;;;;;24.53;20.70;;;;;;;21.66;100.00;97911.38;4174201;28;20704;-86
2022/08/27 01:19:04;;;;;;;23.90;21.30;;;;;;;21.67;100.00;97909.56;4172939;28;21212;-85
2022/08/27 01:21:11;;;;;;;23.63;20.43;;;;;;;21.69;100.00;97913.69;4206409;28;20624;-85
2022/08/27 01:23:19;;;;;;;23.70;20.10;;;;;;;21.71;100.00;97909.03;4175906;28;20630;-85
2022/08/27 01:25:24;;;;;;;21.70;18.63;;;;;;;21.70;100.00;97907.38;4178262;28;20615;-85
2022/08/27 01:27:30;;;;;;;24.83;19.10;;;;;;;21.71;100.00;97910.84;4157076;28;20662;-85
2022/08/27 01:29:33;;;;;;;22.40;18.23;;;;;;;21.70;100.00;97911.88;4171591;28;20691;-85
2022/08/27 01:31:36;;;;;;;22.77;19.73;;;;;;;21.70;100.00;97906.56;4173738;28;20843;-85
2022/08/27 01:33:40;;;;;;;26.20;20.60;;;;;;;21.71;100.00;97917.00;4174216;28;20615;-85
2022/08/27 01:35:47;;;;;;;24.23;20.70;;;;;;;21.72;100.00;97918.63;4178617;28;20668;-85
2022/08/27 01:37:52;;;;;;;25.63;21.73;;;;;;;21.71;100.00;97917.00;4166462;28;20627;-85
2022/08/27 01:39:58;;;;;;;30.60;23.87;;;;;;;21.70;100.00;97915.34;4173535;28;21439;-85
2022/08/27 01:42:04;;;;;;;29.07;24.30;;;;;;;21.70;100.00;97915.34;4173837;28;21088;-85
2022/08/27 01:44:07;;;;;;;28.27;24.03;;;;;;;21.72;100.00;97923.94;4172268;28;20686;-86
2022/08/27 01:46:10;;;;;;;27.87;22.87;;;;;;;21.69;100.00;97920.81;4168172;28;21032;-85
2022/08/27 01:48:13;;;;;;;29.17;24.37;;;;;;;21.70;100.00;97923.31;4167828;28;20626;-85
2022/08/27 01:50:20;;;;;;;28.30;24.17;;;;;;;21.69;100.00;97916.34;4177644;28;20649;-85
2022/08/27 01:52:25;;;;;;;27.17;22.70;;;;;;;21.68;100.00;97912.03;4167508;28;20681;-85
2022/08/27 01:54:28;;;;;;;30.53;26.30;;;;;;;21.65;100.00;97912.41;4172947;28;20627;-85
2022/08/27 01:56:31;;;;;;;33.43;26.97;;;;;;;21.66;100.00;97907.91;4164372;28;20678;-86
2022/08/27 01:58:35;;;;;;;32.80;26.30;;;;;;;21.65;100.00;97915.06;4172217;28;20684;-85
2022/08/27 02:00:41;;;;;;;35.97;26.00;;;;;;;21.64;100.00;97912.56;4172657;28;21021;-85
2022/08/27 02:02:44;;;;;;;30.10;24.50;;;;;;;21.64;100.00;97912.56;4169505;28;21236;-84
2022/08/27 02:04:49;;;;;;;32.23;26.03;;;;;;;21.60;100.00;97914.75;4185313;28;20633;-85
2022/08/27 02:06:52;;;;;;;31.40;26.53;;;;;;;21.58;100.00;97914.09;4186731;28;20612;-85
2022/08/27 02:08:55;;;;;;;33.30;28.03;;;;;;;21.57;100.00;97914.28;4177691;28;20673;-86
2022/08/27 02:10:58;;;;;;;38.63;28.57;;;;;;;21.55;100.00;97911.78;4157882;28;20697;-85
2022/08/27 02:13:01;;;;;;;36.47;29.77;;;;;;;21.56;100.00;97908.16;4170242;28;20630;-85
2022/08/27 02:15:07;;;;;;;36.67;28.73;;;;;;;21.59;100.00;97902.47;4160768;28;20630;-86
2022/08/27 02:17:11;;;;;;;36.77;28.73;;;;;;;21.61;100.00;97897.00;4174246;28;20656;-85
2022/08/27 02:19:15;;;;;;;38.20;29.70;;;;;;;21.63;100.00;97903.75;4173648;28;20712;-86
2022/08/27 02:21:18;;;;;;;37.33;28.77;;;;;;;21.65;100.00;97903.59;4160930;28;20663;-85
2022/08/27 02:23:21;;;;;;;40.70;29.70;;;;;;;21.64;100.00;97900.13;4174484;28;20640;-85
2022/08/27 02:25:26;;;;;;;34.93;28.70;;;;;;;21.64;100.00;97894.81;4177860;28;20622;-86
2022/08/27 02:27:32;;;;;;;38.33;29.57;;;;;;;21.62;100.00;97894.16;4189212;28;20726;-85
2022/08/27 02:29:35;;;;;;;32.83;28.83;;;;;;;21.63;100.00;97887.84;4174569;28;20631;-86
2022/08/27 02:31:40;;;;;;;35.83;27.73;;;;;;;21.64;100.00;97889.50;4172701;28;20687;-85
2022/08/27 02:33:44;;;;;;;37.33;28.97;;;;;;;21.66;100.00;97892.78;4172839;28;20608;-85
2022/08/27 02:35:47;;;;;;;35.43;28.70;;;;;;;21.66;100.00;97900.75;4179159;28;21192;-86
2022/08/27 02:37:50;;;;;;;35.50;30.03;;;;;;;21.66;100.00;97900.75;4175938;28;20732;-87
2022/08/27 02:39:53;;;;;;;35.77;30.20;;;;;;;21.70;100.00;97891.44;4173751;28;20707;-86
2022/08/27 02:41:56;;;;;;;35.10;28.37;;;;;;;21.72;100.00;97891.25;4177533;28;20681;-85
2022/08/27 02:44:00;;;;;;;39.13;30.53;;;;;;;21.74;100.00;97891.91;4174919;28;21073;-86
2022/08/27 02:46:04;;;;;;;38.93;29.63;;;;;;;21.75;100.00;97898.88;4171820;28;20715;-85
2022/08/27 02:48:09;;;;;;;35.73;29.70;;;;;;;21.76;100.00;97895.22;4176544;28;20626;-85
2022/08/27 02:50:13;;;;;;;37.67;31.07;;;;;;;21.76;100.00;97897.88;4174234;28;20653;-85
2022/08/27 02:52:16;;;;;;;37.20;31.40;;;;;;;21.74;100.00;97892.75;4173999;28;20644;-85
2022/08/27 02:54:27;;;;;;;36.07;30.60;;;;;;;21.73;100.00;97899.06;4178306;28;21343;-85
2022/08/27 02:56:30;;;;;;;39.43;31.07;;;;;;;21.72;100.00;97894.72;4179825;28;20628;-85
2022/08/27 02:58:33;;;;;;;41.60;32.57;;;;;;;21.73;100.00;97900.88;4169972;28;20681;-85
2022/08/27 03:00:36;;;;;;;44.07;34.00;;;;;;;21.73;100.00;97896.41;4172612;28;20639;-85
2022/08/27 03:02:40;;;;;;;44.70;31.90;;;;;;;21.72;100.00;97899.22;4208337;28;20629;-86
2022/08/27 03:04:45;;;;;;;37.43;32.57;;;;;;;21.71;100.00;97906.38;4175986;28;20605;-85
2022/08/27 03:06:48;;;;;;;41.17;32.10;;;;;;;21.71;100.00;97910.84;4175571;28;20636;-85
2022/08/27 03:08:51;;;;;;;38.70;31.53;;;;;;;21.70;100.00;97910.03;4172952;28;20674;-85
2022/08/27 03:10:56;;;;;;;44.30;33.80;;;;;;;21.73;100.00;97914.16;4176490;28;20622;-85
2022/08/27 03:12:59;;;;;;;41.27;32.40;;;;;;;21.72;100.00;97905.34;4179603;28;20641;-86
2022/08/27 03:15:03;;;;;;;40.33;33.17;;;;;;;21.71;100.00;97901.06;4168160;28;20630;-85
2022/08/27 03:19:23;;;;;;;41.37;34.17;;;;;;;21.64;100.00;97900.13;4169633;28;20666;-86
2022/08/27 03:21:28;;;;;;;41.17;33.37;;;;;;;21.63;100.00;97908.25;4179183;28;21028;-86
2022/08/27 03:23:32;;;;;;;44.30;33.07;;;;;;;21.59;100.00;97910.44;4176218;28;20639;-85
2022/08/27 03:25:36;;;;;;;44.03;34.17;;;;;;;21.56;100.00;97899.34;4179848;28;20606;-85
2022/08/27 03:27:39;;;;;;;44.30;34.47;;;;;;;21.56;100.00;97902.84;4192121;28;20700;-86
2022/08/27 03:29:42;;;;;;;48.63;37.53;;;;;;;21.56;100.00;97902.84;4176269;28;20661;-86
2022/08/27 03:31:45;;;;;;;42.87;36.70;;;;;;;21.57;100.00;97901.81;4158700;28;20632;-85
2022/08/27 03:33:48;;;;;;;44.60;36.13;;;;;;;21.56;100.00;97897.53;4179148;28;20610;-85
2022/08/27 03:35:51;;;;;;;48.87;36.20;;;;;;;21.56;100.00;97904.66;4174646;28;21020;-85
2022/08/27 03:37:55;;;;;;;48.10;35.47;;;;;;;21.54;100.00;97904.81;4178512;28;20641;-85
2022/08/27 03:39:58;;;;;;;43.53;35.20;;;;;;;21.55;100.00;97900.34;4204194;28;20655;-86
2022/08/27 03:42:01;;;;;;;41.70;35.10;;;;;;;21.56;100.00;97905.50;4157125;28;20640;-85
2022/08/27 03:44:04;;;;;;;44.80;35.37;;;;;;;21.57;100.00;97904.47;4170692;28;21565;-85
2022/08/27 03:46:08;;;;;;;43.77;35.23;;;;;;;21.56;100.00;97897.53;4173870;28;20639;-85
2022/08/27 03:48:11;;;;;;;49.37;36.60;;;;;;;21.57;100.00;97896.50;4197931;28;20649;-85
2022/08/27 03:50:14;;;;;;;46.60;36.20;;;;;;;21.58;100.00;97895.50;4171853;28;21212;-85
2022/08/27 03:52:18;;;;;;;45.27;35.23;;;;;;;21.58;100.00;97894.69;4171989;28;20618;-85
2022/08/27 03:54:23;;;;;;;46.13;35.87;;;;;;;21.57;100.00;97893.84;4172951;28;20609;-86
2022/08/27 03:56:26;;;;;;;47.10;36.80;;;;;;;21.59;100.00;97888.38;4210490;28;20680;-86
2022/08/27 03:58:29;;;;;;;47.57;36.00;;;;;;;21.59;100.00;97885.72;4179026;28;20629;-85
2022/08/27 04:00:33;;;;;;;46.33;36.37;;;;;;;21.59;100.00;97891.00;4170443;28;20689;-86
2022/08/27 04:02:36;;;;;;;45.97;35.90;;;;;;;21.59;100.00;97885.72;4172097;28;20635;-85
2022/08/27 04:04:39;;;;;;;42.90;35.57;;;;;;;21.57;100.00;97871.78;4174364;28;20639;-85
2022/08/27 04:06:42;;;;;;;48.27;37.80;;;;;;;21.56;100.00;97884.25;4170324;28;20983;-85
2022/08/27 04:08:46;;;;;;;43.37;35.27;;;;;;;21.56;100.00;97886.91;4176196;28;20693;-85
2022/08/27 04:10:50;;;;;;;46.00;36.53;;;;;;;21.53;100.00;97884.59;4174596;28;20712;-85
2022/08/27 04:12:54;;;;;;;44.20;36.43;;;;;;;21.54;100.00;97883.59;4174580;28;20643;-85
2022/08/27 04:14:57;;;;;;;44.57;36.13;;;;;;;21.55;100.00;97887.91;4172239;28;20692;-85
2022/08/27 04:17:01;;;;;;;44.47;36.33;;;;;;;21.54;100.00;97882.75;4155743;28;20631;-85
2022/08/27 04:19:04;;;;;;;44.40;36.77;;;;;;;21.54;100.00;97886.25;4173629;28;20671;-85
2022/08/27 04:21:08;;;;;;;48.73;36.67;;;;;;;21.50;100.00;97890.28;4175420;28;20658;-85
2022/08/27 04:23:11;;;;;;;44.30;35.00;;;;;;;21.47;100.00;97887.97;4176000;28;20664;-85
2022/08/27 04:25:14;;;;;;;45.47;36.13;;;;;;;21.48;100.00;97889.59;4179535;28;20672;-85
2022/08/27 04:27:19;;;;;;;44.37;38.50;;;;;;;21.46;100.00;97888.97;4178141;28;21030;-85
2022/08/27 04:29:22;;;;;;;48.17;35.50;;;;;;;21.46;100.00;97891.63;4155943;28;20654;-85
2022/08/27 04:31:26;;;;;;;43.60;35.73;;;;;;;21.45;100.00;97889.09;4172979;28;20613;-85
2022/08/27 04:33:30;;;;;;;43.90;35.87;;;;;;;21.43;100.00;97894.59;4170514;28;21203;-86
2022/08/27 04:35:33;;;;;;;46.60;37.23;;;;;;;21.39;100.00;97890.66;4192285;28;20637;-85
2022/08/27 04:37:36;;;;;;;47.13;36.27;;;;;;;21.40;100.00;97892.28;4154667;28;20630;-86
2022/08/27 04:39:39;;;;;;;41.53;35.20;;;;;;;21.40;100.00;97896.78;4152483;28;20631;-86
2022/08/27 04:41:42;;;;;;;45.70;36.77;;;;;;;21.39;100.00;97901.28;4168749;28;20646;-86
2022/08/27 04:43:48;;;;;;;42.73;35.90;;;;;;;21.38;100.00;97896.94;4159939;28;20639;-85
2022/08/27 04:45:50;;;;;;;44.43;36.40;;;;;;;21.39;100.00;97900.44;4174093;28;21195;-85
2022/08/27 04:47:53;;;;;;;46.63;35.97;;;;;;;21.39;100.00;97897.78;4174396;28;20697;-86
2022/08/27 04:49:57;;;;;;;41.80;33.37;;;;;;;21.39;100.00;97909.22;4173867;28;20751;-85
2022/08/27 04:52:00;;;;;;;42.30;34.27;;;;;;;21.37;100.00;97903.25;4175181;28;20674;-85
2022/08/27 04:54:04;;;;;;;44.77;34.67;;;;;;;21.37;100.00;97905.91;4177828;28;21274;-85
2022/08/27 04:56:07;;;;;;;44.07;34.53;;;;;;;21.37;100.00;97905.91;4156851;28;20623;-86
2022/08/27 04:58:16;;;;;;;42.20;35.73;;;;;;;21.37;100.00;97905.09;4174439;28;21150;-85
2022/08/27 05:00:21;;;;;;;42.23;34.87;;;;;;;21.35;100.00;97899.97;4172826;28;21367;-85
2022/08/27 05:02:24;;;;;;;45.60;35.07;;;;;;;21.35;100.00;97897.31;4169998;28;20634;-85
2022/08/27 05:04:29;;;;;;;41.73;34.40;;;;;;;21.37;100.00;97905.91;4169033;28;21006;-85
2022/08/27 05:06:33;;;;;;;48.03;35.40;;;;;;;21.38;100.00;97904.91;4162887;28;20633;-86
2022/08/27 05:08:36;;;;;;;44.90;36.00;;;;;;;21.38;100.00;97909.41;4170386;28;21330;-85
2022/08/27 05:10:40;;;;;;;46.00;33.60;;;;;;;21.37;100.00;97905.91;4171744;28;20614;-85
2022/08/27 05:12:43;;;;;;;44.67;35.27;;;;;;;21.37;100.00;97911.22;4173239;28;20653;-85
2022/08/27 05:14:46;;;;;;;40.90;33.70;;;;;;;21.36;100.00;97908.75;4173467;28;20663;-85
2022/08/27 05:16:51;;;;;;;46.30;35.17;;;;;;;21.36;100.00;97906.94;4171269;28;21032;-85
2022/08/27 05:18:54;;;;;;;44.13;34.53;;;;;;;21.37;100.00;97911.22;4169377;28;20972;-86
2022/08/27 05:20:58;;;;;;;39.07;33.50;;;;;;;21.37;100.00;97907.75;4174400;28;20662;-85
2022/08/27 05:23:01;;;;;;;44.70;33.80;;;;;;;21.38;100.00;97899.59;4175626;28;20614;-85
2022/08/27 05:25:05;;;;;;;43.43;34.80;;;;;;;21.37;100.00;97897.94;4176119;28;20606;-85
2022/08/27 05:27:08;;;;;;;43.00;33.80;;;;;;;21.36;100.00;97893.66;4168245;28;20632;-85
2022/08/27 05:29:15;;;;;;;45.93;36.70;;;;;;;21.38;100.00;97904.91;4175750;28;20636;-85
2022/08/27 05:31:19;;;;;;;45.70;34.37;;;;;;;21.39;100.00;97898.63;4175032;28;20619;-85
2022/08/27 05:33:25;;;;;;;48.40;34.83;;;;;;;21.40;100.00;97897.59;4171909;28;20631;-85
2022/08/27 05:35:28;;;;;;;43.80;34.37;;;;;;;21.41;100.00;97896.59;4177271;28;21189;-85
2022/08/27 05:37:32;;;;;;;41.53;34.20;;;;;;;21.41;100.00;97893.94;4173433;28;20663;-86
2022/08/27 05:39:35;;;;;;;42.33;33.90;;;;;;;21.42;100.00;97890.31;4171121;28;20636;-85
2022/08/27 05:41:38;;;;;;;41.20;32.70;;;;;;;21.43;100.00;97891.13;4170452;28;20678;-85
2022/08/27 05:43:42;;;;;;;41.83;34.23;;;;;;;21.42;100.00;97895.63;4172875;28;21013;-85
2022/08/27 05:45:52;;;;;;;47.63;36.60;;;;;;;21.45;100.00;97900.56;4160630;28;20623;-85
2022/08/27 05:47:55;;;;;;;43.20;34.47;;;;;;;21.46;100.00;97896.09;4169230;28;21073;-85
2022/08/27 05:50:02;;;;;;;48.90;37.50;;;;;;;21.47;100.00;97903.91;4174534;28;21190;-85
2022/08/27 05:52:09;;;;;;;44.83;34.00;;;;;;;21.48;100.00;97899.41;4206215;28;20652;-85
2022/08/27 05:54:18;;;;;;;42.63;33.90;;;;;;;21.49;100.00;97901.88;4175311;28;20645;-85
2022/08/27 05:56:23;;;;;;;40.20;34.10;;;;;;;21.51;100.00;97899.88;4161006;28;20635;-85
2022/08/27 06:01:05;;;;;;;41.40;33.97;;;;;;;21.53;100.00;97903.19;4201978;28;20624;-85
2022/08/27 06:03:12;;;;;;;41.70;33.30;;;;;;;21.52;100.00;97898.88;4179955;28;21214;-85
2022/08/27 06:05:16;;;;;;;46.67;34.93;;;;;;;21.54;100.00;97902.16;4176257;28;20652;-85
2022/08/27 06:07:19;;;;;;;45.10;35.60;;;;;;;21.55;100.00;97900.34;4173417;28;20734;-86
2022/08/27 06:09:27;;;;;;;49.83;36.57;;;;;;;21.54;100.00;97904.00;4177366;28;21028;-86
2022/08/27 06:11:30;;;;;;;44.53;35.37;;;;;;;21.57;100.00;97899.16;4176171;28;20637;-86
2022/08/27 06:13:35;;;;;;;46.40;36.43;;;;;;;21.60;100.00;97898.00;4173495;28;20650;-84
2022/08/27 06:15:40;;;;;;;44.67;36.90;;;;;;;21.60;100.00;97908.59;4168252;28;20628;-85
2022/08/27 06:17:43;;;;;;;47.30;35.73;;;;;;;21.62;100.00;97901.28;4174988;28;20726;-85
2022/08/27 06:19:46;;;;;;;49.33;35.17;;;;;;;21.64;100.00;97908.09;4161742;28;20680;-85
2022/08/27 06:21:50;;;;;;;47.60;37.30;;;;;;;21.65;100.00;97907.09;4176258;28;20662;-85
2022/08/27 06:24:12;;;;;;;47.37;36.03;;;;;;;21.66;100.00;97914.03;4179345;28;20710;-85
2022/08/27 06:26:17;;;;;;;50.83;35.17;;;;;;;21.66;100.00;97914.03;4177719;28;20621;-85
2022/08/27 06:28:22;;;;;;;45.23;35.10;;;;;;;21.68;100.00;97916.50;4162493;28;20631;-85
2022/08/27 06:30:25;;;;;;;44.03;35.70;;;;;;;21.69;100.00;97920.81;4170028;28;20616;-84
2022/08/27 06:32:30;;;;;;;39.53;32.93;;;;;;;21.68;100.00;97925.31;4177476;28;20634;-85
2022/08/27 06:34:33;;;;;;;47.13;35.10;;;;;;;21.68;100.00;97922.66;4179894;28;20630;-85
2022/08/27 06:36:38;;;;;;;49.10;36.70;;;;;;;21.69;100.00;97921.66;4176763;28;20626;-87
2022/08/27 06:38:42;;;;;;;49.03;37.83;;;;;;;21.70;100.00;97930.47;4179132;28;21069;-86
2022/08/27 06:40:46;;;;;;;46.13;38.53;;;;;;;21.71;100.00;97926.78;4180431;28;20633;-84
2022/08/27 06:42:50;;;;;;;51.77;39.10;;;;;;;21.71;100.00;97926.78;4171981;28;20666;-84
2022/08/27 06:44:53;;;;;;;44.00;37.00;;;;;;;21.72;100.00;97928.44;4175444;28;20653;-85
2022/08/27 06:46:56;;;;;;;48.27;37.47;;;;;;;21.73;100.00;97932.75;4174875;28;20631;-84
2022/08/27 06:49:00;;;;;;;48.73;38.07;;;;;;;21.74;100.00;97937.03;4163078;28;20631;-84
2022/08/27 06:51:07;;;;;;;51.53;38.30;;;;;;;21.74;100.00;97932.59;4176004;28;20626;-84
2022/08/27 06:53:11;;;;;;;47.67;38.00;;;;;;;21.75;100.00;97936.88;4168410;28;20638;-84
2022/08/27 06:55:15;;;;;;;48.27;38.30;;;;;;;21.76;100.00;97936.69;4176442;28;20642;-85
2022/08/27 06:57:18;;;;;;;45.73;36.63;;;;;;;21.79;100.00;97931.03;4161742;28;20626;-84
2022/08/27 06:59:21;;;;;;;46.53;38.03;;;;;;;21.80;100.00;97926.56;4159228;28;21217;-84
2022/08/27 07:01:29;;;;;;;50.03;38.20;;;;;;;21.83;100.00;97934.13;4174824;28;20648;-84
2022/08/27 07:03:32;;;;;;;49.43;38.60;;;;;;;21.85;100.00;97930.31;4163499;28;21061;-85
2022/08/27 07:05:36;;;;;;;48.30;37.60;;;;;;;21.87;100.00;97932.78;4154768;28;20661;-85
2022/08/27 07:07:39;;;;;;;48.57;38.40;;;;;;;21.88;100.00;97929.97;4173943;28;20697;-85
2022/08/27 07:09:50;;;;;;;44.77;37.47;;;;;;;21.90;100.00;97930.59;4152769;28;21164;-85
2022/08/27 07:11:56;;;;;;;50.03;38.70;;;;;;;21.89;100.00;97931.63;4158865;28;21070;-85
2022/08/27 07:13:59;;;;;;;54.73;40.53;;;;;;;21.90;100.00;97927.94;4170722;28;21210;-85
2022/08/27 07:16:04;;;;;;;47.10;39.10;;;;;;;21.91;100.00;97934.09;4168493;28;20690;-85
2022/08/27 07:18:07;;;;;;;45.97;37.10;;;;;;;21.91;100.00;97931.44;4178102;28;20627;-85
2022/08/27 07:20:14;;;;;;;50.53;37.43;;;;;;;21.91;100.00;97931.44;4174996;28;20718;-85
2022/08/27 07:22:17;;;;;;;46.63;38.50;;;;;;;21.92;100.00;97931.28;4204053;28;20644;-84
2022/08/27 07:24:20;;;;;;;47.90;37.60;;;;;;;21.94;100.00;97928.44;4170703;28;20994;-85
2022/08/27 07:26:23;;;;;;;50.60;37.33;;;;;;;21.93;100.00;97929.44;4162224;28;20720;-85
2022/08/27 07:28:28;;;;;;;47.90;37.90;;;;;;;21.93;100.00;97932.91;4211121;28;20972;-85
2022/08/27 07:30:31;;;;;;;49.70;38.07;;;;;;;21.92;100.00;97933.06;4174485;28;20631;-85
2022/08/27 07:32:34;;;;;;;50.53;39.60;;;;;;;21.92;100.00;97938.38;4175664;28;20711;-85
2022/08/27 07:34:37;;;;;;;48.80;37.60;;;;;;;21.93;100.00;97950.69;4174027;28;20616;-84
2022/08/27 07:36:40;;;;;;;48.37;38.87;;;;;;;21.91;100.00;97937.56;4175016;28;20702;-85
2022/08/27 07:38:44;;;;;;;50.43;38.60;;;;;;;21.91;100.00;97956.16;4175085;28;20627;-85
2022/08/27 07:40:57;;;;;;;48.27;37.90;;;;;;;21.92;100.00;97951.66;4153305;28;21600;-85
2022/08/27 07:45:22;;;;;;;50.70;38.57;;;;;;;21.92;100.00;97952.53;4174613;28;20618;-85
2022/08/27 07:47:25;;;;;;;53.63;39.17;;;;;;;21.91;100.00;97950.03;4176733;28;20689;-85
2022/08/27 07:49:30;;;;;;;49.87;38.00;;;;;;;21.92;100.00;97956.97;4170300;28;20674;-84
2022/08/27 07:51:36;;;;;;;48.33;38.43;;;;;;;21.92;100.00;97956.97;4174031;28;20626;-85
2022/08/27 07:53:39;;;;;;;52.93;40.20;;;;;;;21.91;100.00;97948.19;4175355;28;20622;-84
2022/08/27 07:55:42;;;;;;;51.37;39.20;;;;;;;21.92;100.00;97960.50;4174866;28;20671;-85
2022/08/27 07:57:46;;;;;;;55.20;38.50;;;;;;;21.92;100.00;97957.84;4173254;28;21049;-84
2022/08/27 07:59:51;;;;;;;52.53;40.03;;;;;;;21.92;100.00;97956.97;4158040;28;21105;-85
2022/08/27 08:01:56;;;;;;;52.30;40.70;;;;;;;21.93;100.00;97964.78;4175690;28;20612;-85
2022/08/27 08:04:00;;;;;;;50.67;39.93;;;;;;;21.95;100.00;97959.28;4171909;28;20620;-85
2022/08/27 08:06:04;;;;;;;48.63;38.97;;;;;;;21.97;100.00;97965.28;4175358;28;21044;-85
2022/08/27 08:08:08;;;;;;;49.87;39.00;;;;;;;21.98;100.00;97961.59;4160557;28;20662;-85
2022/08/27 08:10:11;;;;;;;54.13;40.30;;;;;;;22.00;100.00;97964.91;4176607;28;20622;-85
2022/08/27 08:12:14;;;;;;;50.03;39.63;;;;;;;22.02;100.00;97970.88;4168483;28;20622;-85
2022/08/27 08:14:21;;;;;;;52.40;39.80;;;;;;;22.05;100.00;97971.31;4162120;28;21048;-87
2022/08/27 08:16:24;;;;;;;48.37;39.47;;;;;;;22.09;100.00;97974.47;4174209;28;20630;-85
2022/08/27 08:18:37;;;;;;;51.47;38.03;;;;;;;22.09;100.00;97969.97;4204258;28;20723;-85
2022/08/27 08:20:40;;;;;;;49.57;38.97;;;;;;;22.11;100.00;97973.28;4157280;28;20634;-85
2022/08/27 08:23:00;;;;;;;45.83;37.73;;;;;;;22.15;100.00;97979.06;4172027;28;21332;-85
2022/08/27 08:25:04;;;;;;;53.00;37.47;;;;;;;22.17;100.00;97971.75;4159971;28;21090;-85
2022/08/27 08:27:07;;;;;;;48.93;38.07;;;;;;;22.19;100.00;97969.72;4172946;28;20614;-85
2022/08/27 08:29:10;;;;;;;47.33;36.70;;;;;;;22.20;100.00;97972.19;4174016;28;20627;-85
2022/08/27 08:31:22;;;;;;;47.10;38.50;;;;;;;22.23;100.00;97981.69;4159790;28;20678;-85
2022/08/27 08:33:26;;;;;;;43.97;36.77;;;;;;;22.23;100.00;97967.38;4173038;28;20639;-85
2022/08/27 08:35:30;;;;;;;52.70;37.77;;;;;;;22.25;100.00;97973.38;4177964;28;20627;-85
2022/08/27 08:37:43;;;;;;;48.23;37.03;;;;;;;22.26;100.00;97979.50;4171825;28;20622;-85
2022/08/27 08:39:46;;;;;;;50.00;38.13;;;;;;;22.29;100.00;97985.25;4171760;28;20619;-85
2022/08/27 08:41:51;;;;;;;48.23;36.67;;;;;;;22.29;99.90;97987.94;4172908;28;20640;-85
2022/08/27 08:43:56;;;;;;;46.33;37.23;;;;;;;22.34;99.31;97987.38;4161521;28;20662;-85
2022/08/27 08:46:05;;;;;;;48.47;35.93;;;;;;;22.37;99.99;97993.19;4171967;28;20682;-85
2022/08/27 08:48:11;;;;;;;44.03;36.03;;;;;;;22.38;99.89;97986.84;4174124;28;20753;-85
2022/08/27 08:50:18;;;;;;;43.47;35.30;;;;;;;22.41;99.46;97991.81;4171522;28;20741;-84
2022/08/27 08:52:30;;;;;;;39.80;32.40;;;;;;;22.43;98.84;97994.28;4170494;28;20619;-84
2022/08/27 08:54:34;;;;;;;38.27;32.17;;;;;;;22.45;98.20;97987.78;4176227;28;20639;-84
2022/08/27 08:56:43;;;;;;;36.87;30.23;;;;;;;22.50;97.37;98001.38;4177549;28;21061;-84
2022/08/27 08:58:50;;;;;;;32.23;28.07;;;;;;;22.49;97.30;97993.56;4168509;28;20626;-84
2022/08/27 09:00:56;;;;;;;35.17;29.23;;;;;;;22.58;97.61;97995.16;4169636;28;20928;-84
2022/08/27 09:02:59;;;;;;;31.10;27.80;;;;;;;22.61;97.66;97995.59;4173070;28;20657;-84
2022/08/27 09:05:04;;;;;;;34.90;28.90;;;;;;;22.64;97.24;97989.91;4173549;28;20929;-84
2022/08/27 09:07:13;;;;;;;32.73;27.40;;;;;;;22.68;96.73;97993.88;4173562;28;20744;-84
2022/08/27 09:09:21;;;;;;;29.87;25.63;;;;;;;22.68;96.83;97993.06;4170680;28;21160;-84
2022/08/27 09:11:29;;;;;;;32.23;26.50;;;;;;;22.70;97.29;97988.38;4159546;28;21218;-84
2022/08/27 09:13:36;;;;;;;28.30;24.23;;;;;;;22.72;98.28;97981.88;4168412;28;21586;-84
2022/08/27 09:15:39;;;;;;;29.43;26.23;;;;;;;22.73;98.45;97981.69;4173122;28;21194;-84
2022/08/27 09:17:44;;;;;;;31.97;27.77;;;;;;;22.74;98.83;97985.97;4172071;28;20636;-84
2022/08/27 09:19:47;;;;;;;33.00;26.50;;;;;;;22.77;98.73;97985.63;4171052;28;21040;-83
2022/08/27 09:21:58;;;;;;;27.87;24.37;;;;;;;22.78;98.69;97991.78;4171167;28;20648;-84
2022/08/27 09:24:06;;;;;;;28.57;25.27;;;;;;;22.80;98.52;97984.44;4174398;28;20787;-84
2022/08/27 09:26:22;;;;;;;27.50;24.67;;;;;;;22.81;98.92;97988.75;4161460;28;21033;-83
2022/08/27 09:30:49;;;;;;;26.50;23.57;;;;;;;22.83;98.76;97986.72;4167029;28;20622;-84
2022/08/27 09:32:55;;;;;;;25.40;22.70;;;;;;;22.84;98.33;97981.22;4172545;28;20726;-84
2022/08/27 09:35:00;;;;;;;28.40;24.20;;;;;;;22.87;99.22;97991.50;4155793;28;20631;-84
2022/08/27 09:37:07;;;;;;;29.17;26.17;;;;;;;22.92;99.67;97985.63;4174248;28;21190;-84